Terminal Aerodrome Forecast
Issued by NWS

Home | Current Version | Previous Version | Text Only | Print | Product List | Glossary On
Versions: 1 2 3 4 5 6 7 8 9 10 11 12
000
FTUS45 KABQ 191139
TAFFMN
TAF
KFMN 191139Z 1912/2012 10008KT P6SM BKN200
     FM191400 13006KT P6SM BKN110
     FM192100 22010KT P6SM VCSH BKN100
     FM200200 13010KT P6SM VCSH SCT070 OVC100
     FM200500 09007KT P6SM SCT090=

USA.gov is the U.S. government's official web portal to all federal, state and local government web resources and services.